Time;durP1;ratioP1;P1;durP2;ratioP2;P2;SDS_P1;SDS_P2;PMS_P1;PMS_P2;Temp;Humidity;BMP_temperature;BMP_pressure;BME280_temperature;BME280_humidity;BME280_pressure;Samples;Min_cycle;Max_cycle;Signal;HPM_P1;HPM_P2
2022/08/17 00:00:16;;;;;;;9.82;4.78;;;20.70;99.90;;;;;;7311586;32;20327;-65
2022/08/17 00:04:38;;;;;;;8.45;5.43;;;20.90;99.90;;;;;;7317001;32;20088;-65
2022/08/17 00:08:43;;;;;;;7.22;5.80;;;21.10;99.90;;;;;;7311291;32;20545;-64
2022/08/17 00:12:45;;;;;;;5.87;4.70;;;21.20;99.90;;;;;;7311556;32;20159;-64
2022/08/17 00:16:50;;;;;;;12.05;5.30;;;21.20;99.90;;;;;;7304891;32;20231;-64
2022/08/17 00:20:59;;;;;;;8.07;5.40;;;21.10;99.90;;;;;;7307864;32;20148;-64
2022/08/17 00:25:04;;;;;;;7.22;4.82;;;21.20;99.90;;;;;;7316128;32;20202;-64
2022/08/17 00:29:06;;;;;;;8.38;4.70;;;21.20;99.90;;;;;;7308362;32;20222;-64
2022/08/17 00:33:12;;;;;;;6.57;5.00;;;21.10;99.90;;;;;;7315848;32;20119;-65
2022/08/17 00:37:17;;;;;;;8.85;5.47;;;21.00;99.90;;;;;;7309973;32;20146;-63
2022/08/17 00:41:23;;;;;;;11.68;5.28;;;20.90;99.90;;;;;;7310943;32;20593;-63
2022/08/17 00:45:25;;;;;;;11.18;5.72;;;20.90;99.90;;;;;;7316711;32;20272;-63
2022/08/17 00:49:28;;;;;;;6.30;4.97;;;21.00;99.90;;;;;;7312790;32;20154;-64
2022/08/17 00:53:32;;;;;;;10.23;5.68;;;20.90;99.90;;;;;;7314923;32;20209;-63
2022/08/17 00:57:38;;;;;;;9.20;5.72;;;20.80;99.90;;;;;;7290770;32;20206;-63
2022/08/17 01:01:41;;;;;;;7.53;5.87;;;20.70;99.90;;;;;;7319778;32;20183;-63
2022/08/17 01:05:43;;;;;;;6.37;5.78;;;20.50;99.90;;;;;;7312463;32;20730;-63
2022/08/17 01:09:47;;;;;;;7.30;6.05;;;20.10;99.90;;;;;;7308762;32;20103;-64
2022/08/17 01:13:49;;;;;;;9.32;5.97;;;19.90;99.90;;;;;;7309610;32;20146;-64
2022/08/17 01:17:51;;;;;;;7.85;5.90;;;19.70;99.90;;;;;;7303707;32;20666;-63
2022/08/17 01:22:04;;;;;;;6.72;6.03;;;19.60;99.90;;;;;;7306417;32;20100;-63
2022/08/17 01:26:07;;;;;;;7.20;6.40;;;19.40;99.90;;;;;;7312778;32;20800;-63
2022/08/17 01:30:11;;;;;;;10.05;6.97;;;19.40;99.90;;;;;;7309716;32;20207;-63
2022/08/17 01:34:33;;;;;;;9.93;6.10;;;19.20;99.90;;;;;;7313783;32;20842;-61
2022/08/17 01:38:44;;;;;;;13.43;7.82;;;19.10;99.90;;;;;;7313745;32;20142;-62
2022/08/17 01:42:56;;;;;;;11.73;6.85;;;18.90;99.90;;;;;;7312102;32;20237;-64
2022/08/17 01:46:57;;;;;;;8.40;6.65;;;18.80;99.90;;;;;;7309840;32;20306;-62
2022/08/17 01:51:02;;;;;;;9.65;7.00;;;18.70;99.90;;;;;;7311952;32;20489;-63
2022/08/17 01:55:06;;;;;;;8.70;6.57;;;18.60;99.90;;;;;;7312087;32;20160;-64
2022/08/17 01:59:08;;;;;;;11.12;7.60;;;18.50;99.90;;;;;;7297229;32;20187;-63
2022/08/17 02:03:10;;;;;;;12.55;7.62;;;18.40;99.90;;;;;;7310960;32;20135;-63
2022/08/17 02:07:12;;;;;;;10.63;7.80;;;18.30;99.90;;;;;;7296861;32;20276;-63
2022/08/17 02:11:20;;;;;;;14.15;7.40;;;18.10;99.90;;;;;;7310558;32;20146;-63
2022/08/17 02:15:22;;;;;;;9.23;8.20;;;18.10;99.90;;;;;;7311628;32;20100;-64
2022/08/17 02:19:24;;;;;;;8.52;7.72;;;18.00;99.90;;;;;;7305246;32;20265;-63
2022/08/17 02:23:28;;;;;;;10.43;7.53;;;17.90;99.90;;;;;;7310886;32;20111;-63
2022/08/17 02:27:30;;;;;;;8.85;7.95;;;17.80;99.90;;;;;;7305498;32;20520;-61
2022/08/17 02:31:32;;;;;;;8.80;7.53;;;17.70;99.90;;;;;;7303769;32;20205;-63
2022/08/17 02:35:35;;;;;;;9.63;7.70;;;17.70;99.90;;;;;;7301562;32;20693;-63
2022/08/17 02:39:37;;;;;;;10.25;7.65;;;17.60;99.90;;;;;;7308508;32;20118;-64
2022/08/17 02:43:39;;;;;;;14.70;8.40;;;17.50;99.90;;;;;;7310618;32;20496;-64
2022/08/17 02:47:42;;;;;;;15.25;8.60;;;17.50;99.90;;;;;;7307182;32;20100;-63
2022/08/17 02:51:44;;;;;;;15.48;8.45;;;17.50;99.90;;;;;;7306975;32;20255;-61
2022/08/17 02:55:46;;;;;;;8.98;8.07;;;17.30;99.90;;;;;;7300960;32;20125;-64
2022/08/17 02:59:48;;;;;;;10.43;8.07;;;17.30;99.90;;;;;;7308862;32;20206;-63
2022/08/17 03:03:50;;;;;;;8.77;7.93;;;17.30;99.90;;;;;;7312394;32;20383;-63
2022/08/17 03:07:52;;;;;;;9.07;7.82;;;17.30;99.90;;;;;;7310136;32;20492;-64
2022/08/17 03:11:53;;;;;;;10.52;8.32;;;17.20;99.90;;;;;;7299866;32;20177;-63
2022/08/17 03:15:56;;;;;;;9.38;8.10;;;17.30;99.90;;;;;;7313117;32;20103;-63
2022/08/17 03:19:58;;;;;;;11.25;8.23;;;17.30;99.90;;;;;;7309986;32;20128;-63
2022/08/17 03:24:00;;;;;;;9.27;8.13;;;17.30;99.90;;;;;;7304048;32;20348;-63
2022/08/17 03:28:10;;;;;;;13.43;8.23;;;17.30;99.90;;;;;;7310076;32;20139;-63
2022/08/17 03:32:14;;;;;;;10.02;7.90;;;17.30;99.90;;;;;;7285631;32;20211;-61
2022/08/17 03:36:16;;;;;;;10.43;8.40;;;17.30;99.90;;;;;;7297397;32;20096;-64
2022/08/17 03:40:19;;;;;;;9.15;7.85;;;17.30;99.90;;;;;;7307812;32;20187;-63
2022/08/17 03:44:40;;;;;;;11.12;7.72;;;17.30;99.90;;;;;;7311650;32;20242;-62
2022/08/17 03:57:30;;;;;;;12.07;8.45;;;17.20;99.90;;;;;;7311973;32;20142;-64
2022/08/17 04:01:32;;;;;;;9.15;8.13;;;17.10;99.90;;;;;;7309229;32;20138;-64
2022/08/17 04:05:33;;;;;;;11.88;8.15;;;17.10;99.90;;;;;;7310906;32;20088;-64
2022/08/17 04:09:35;;;;;;;9.15;7.40;;;17.10;99.90;;;;;;7307950;32;20194;-63
2022/08/17 04:13:37;;;;;;;9.63;7.62;;;17.10;99.90;;;;;;7317299;32;20127;-63
2022/08/17 04:17:39;;;;;;;9.80;8.13;;;17.00;99.90;;;;;;7312631;32;20127;-64
2022/08/17 04:21:41;;;;;;;8.38;7.55;;;17.00;99.90;;;;;;7312507;32;20570;-64
2022/08/17 04:25:47;;;;;;;8.13;7.32;;;17.00;99.90;;;;;;7321050;32;20103;-63
2022/08/17 04:29:48;;;;;;;9.02;7.90;;;17.00;99.90;;;;;;7317274;32;20131;-64
2022/08/17 04:33:56;;;;;;;9.63;6.95;;;17.00;99.90;;;;;;7316223;32;20219;-64
2022/08/17 04:37:58;;;;;;;9.13;7.40;;;17.00;99.90;;;;;;7316691;32;20507;-64
2022/08/17 04:42:07;;;;;;;8.00;7.07;;;17.00;99.90;;;;;;7313407;32;20183;-62
2022/08/17 04:46:13;;;;;;;12.05;8.00;;;17.10;99.90;;;;;;7319908;32;20432;-62
2022/08/17 04:50:15;;;;;;;9.57;7.15;;;17.20;99.90;;;;;;7317603;32;20255;-63
2022/08/17 04:54:19;;;;;;;10.63;6.32;;;17.20;99.90;;;;;;7311715;32;20159;-62
2022/08/17 04:58:21;;;;;;;7.25;6.47;;;17.30;99.90;;;;;;7310700;32;20265;-64
2022/08/17 05:02:23;;;;;;;7.57;6.32;;;17.40;99.90;;;;;;7319083;32;20190;-63
2022/08/17 05:06:26;;;;;;;9.07;6.62;;;17.50;99.90;;;;;;7308287;32;20650;-63
2022/08/17 05:10:30;;;;;;;20.05;13.07;;;17.60;99.90;;;;;;7296696;32;20184;-63
2022/08/17 05:14:32;;;;;;;14.23;7.70;;;17.70;99.90;;;;;;7312893;32;20218;-63
2022/08/17 05:18:36;;;;;;;9.27;6.10;;;17.80;99.90;;;;;;7313318;32;20111;-62
2022/08/17 05:22:50;;;;;;;7.07;5.95;;;17.90;99.90;;;;;;7316646;32;20099;-62
2022/08/17 05:26:52;;;;;;;7.03;5.43;;;18.00;99.90;;;;;;7310813;32;20126;-63
2022/08/17 05:30:58;;;;;;;6.43;5.80;;;18.10;99.90;;;;;;7311236;32;20112;-63
2022/08/17 05:35:00;;;;;;;7.87;5.47;;;18.20;99.90;;;;;;7311711;32;20384;-62
2022/08/17 05:39:02;;;;;;;8.32;5.47;;;18.40;99.90;;;;;;7311651;32;20135;-62
2022/08/17 05:43:32;;;;;;;6.28;5.18;;;18.50;99.90;;;;;;7311741;32;20155;-61
2022/08/17 05:47:35;;;;;;;7.35;4.20;;;18.70;99.90;;;;;;7308852;32;20494;-58
2022/08/17 05:51:59;;;;;;;5.25;4.07;;;18.90;99.90;;;;;;7306998;32;20104;-60
2022/08/17 05:56:10;;;;;;;5.30;3.60;;;19.30;99.90;;;;;;7296804;32;21226;-59
2022/08/17 06:00:45;;;;;;;5.97;4.00;;;19.60;99.90;;;;;;7306565;32;20124;-60
2022/08/17 06:04:47;;;;;;;7.40;3.67;;;19.80;99.90;;;;;;7295617;32;20096;-60
2022/08/17 06:09:05;;;;;;;4.68;3.37;;;20.10;99.90;;;;;;7307767;32;20103;-60
2022/08/17 06:13:58;;;;;;;7.28;3.70;;;20.40;99.90;;;;;;7317379;32;20222;-60
2022/08/17 06:18:06;;;;;;;6.85;3.75;;;20.60;99.90;;;;;;7312731;32;20732;-60
2022/08/17 06:22:12;;;;;;;9.85;3.95;;;21.40;99.90;;;;;;7312368;32;20526;-60
2022/08/17 06:26:19;;;;;;;7.60;3.62;;;21.60;99.90;;;;;;7306746;32;20377;-59
2022/08/17 06:30:29;;;;;;;7.20;4.03;;;21.60;99.90;;;;;;7304914;32;20559;-60
2022/08/17 06:34:52;;;;;;;7.53;4.03;;;21.80;99.90;;;;;;7309830;32;20364;-60
2022/08/17 06:39:12;;;;;;;11.43;3.65;;;21.70;99.90;;;;;;7308961;32;20185;-60
2022/08/17 06:43:44;;;;;;;6.12;3.65;;;21.70;99.90;;;;;;7309118;32;20275;-60
2022/08/17 06:47:58;;;;;;;7.22;3.75;;;21.90;99.90;;;;;;7310476;32;20099;-61
2022/08/17 06:52:13;;;;;;;5.10;3.70;;;22.00;99.90;;;;;;7307386;32;20759;-60
2022/08/17 06:56:42;;;;;;;9.05;4.18;;;22.10;99.90;;;;;;7310635;32;20234;-60
2022/08/17 07:01:00;;;;;;;10.68;3.85;;;22.20;99.90;;;;;;7307145;32;20186;-60
2022/08/17 07:05:03;;;;;;;;;;;22.30;99.90;;;;;;7309326;32;20595;-61
2022/08/17 07:09:22;;;;;;;5.05;4.25;;;22.40;99.90;;;;;;7301778;32;20482;-60
2022/08/17 07:13:49;;;;;;;5.85;4.70;;;22.50;99.90;;;;;;7303502;32;20143;-60
2022/08/17 07:17:52;;;;;;;9.77;5.60;;;22.60;99.90;;;;;;7307845;32;20099;-60
2022/08/17 07:22:06;;;;;;;8.23;5.72;;;22.70;99.90;;;;;;7312065;32;20158;-60
2022/08/17 07:26:09;;;;;;;11.73;6.00;;;22.80;99.90;;;;;;7300150;32;20141;-61
2022/08/17 07:30:16;;;;;;;9.43;6.75;;;22.80;99.90;;;;;;7308654;32;20104;-64
2022/08/17 07:34:17;;;;;;;;;;;22.90;99.90;;;;;;7312350;32;20130;-65
2022/08/17 07:38:22;;;;;;;9.68;6.90;;;22.90;99.90;;;;;;7305042;32;20142;-64
2022/08/17 07:42:27;;;;;;;9.55;6.85;;;23.00;99.90;;;;;;7308260;32;20254;-64
2022/08/17 07:50:54;;;;;;;10.43;8.40;;;23.30;99.90;;;;;;7312632;32;20091;-64
2022/08/17 07:54:56;;;;;;;11.27;7.35;;;23.40;99.90;;;;;;7313880;32;20284;-65
2022/08/17 07:59:19;;;;;;;14.43;7.60;;;23.40;99.90;;;;;;7308401;32;20264;-64
2022/08/17 08:03:30;;;;;;;10.80;8.90;;;23.50;99.90;;;;;;7312855;32;20715;-65
2022/08/17 08:07:37;;;;;;;14.90;9.13;;;23.50;99.90;;;;;;7312319;32;20817;-65
2022/08/17 08:11:40;;;;;;;11.88;8.40;;;23.50;99.90;;;;;;7313607;32;20119;-66
2022/08/17 08:16:15;;;;;;;9.80;8.47;;;23.30;99.90;;;;;;7301984;32;20131;-66
2022/08/17 08:20:20;;;;;;;11.05;8.25;;;23.40;99.90;;;;;;7315781;32;20202;-65
2022/08/17 08:24:41;;;;;;;13.80;8.48;;;23.40;99.90;;;;;;7316079;32;20231;-64
2022/08/17 08:28:54;;;;;;;12.57;8.35;;;23.40;99.90;;;;;;7317267;32;20765;-64
2022/08/17 08:33:05;;;;;;;14.73;9.18;;;23.60;99.90;;;;;;7314153;32;20359;-64
2022/08/17 08:37:29;;;;;;;13.88;9.63;;;23.80;99.90;;;;;;7319258;32;20180;-65
2022/08/17 08:41:57;;;;;;;12.57;8.93;;;23.90;99.90;;;;;;7312022;32;20236;-64
2022/08/17 08:46:40;;;;;;;16.42;11.40;;;24.00;99.90;;;;;;7315458;32;20122;-64
2022/08/17 08:51:04;;;;;;;13.27;9.50;;;24.00;99.90;;;;;;7316349;32;20212;-66
2022/08/17 08:55:23;;;;;;;13.52;9.40;;;23.90;99.90;;;;;;7314855;32;20340;-65
2022/08/17 08:59:28;;;;;;;11.52;10.43;;;23.80;99.90;;;;;;7312804;32;20205;-65
2022/08/17 09:03:51;;;;;;;12.15;10.90;;;23.70;99.90;;;;;;7315339;32;20218;-65
2022/08/17 09:08:03;;;;;;;16.33;9.50;;;23.60;99.90;;;;;;7319202;32;20111;-64
2022/08/17 09:12:15;;;;;;;12.93;10.23;;;23.40;99.90;;;;;;7319696;32;20648;-64
2022/08/17 09:16:39;;;;;;;15.32;10.45;;;23.40;99.90;;;;;;7315384;32;20295;-64
2022/08/17 09:20:57;;;;;;;11.52;9.70;;;23.40;99.90;;;;;;7320787;32;20119;-64
2022/08/17 09:25:20;;;;;;;13.80;11.43;;;23.40;99.90;;;;;;7337178;32;20194;-63
2022/08/17 09:29:25;;;;;;;14.57;12.18;;;23.30;99.90;;;;;;7324251;32;20115;-64
2022/08/17 09:33:30;;;;;;;17.05;11.95;;;23.40;99.90;;;;;;7320207;32;20209;-64
2022/08/17 09:38:00;;;;;;;17.45;13.62;;;23.30;99.90;;;;;;7323411;32;20104;-64
2022/08/17 09:42:23;;;;;;;17.50;13.68;;;23.30;99.90;;;;;;7308994;32;20107;-64
2022/08/17 09:46:35;;;;;;;17.52;13.30;;;23.30;99.90;;;;;;7308655;32;20486;-64
2022/08/17 09:51:11;;;;;;;16.77;13.65;;;23.20;99.90;;;;;;7315565;32;20183;-64
2022/08/17 09:55:13;;;;;;;12.70;11.35;;;23.20;99.90;;;;;;7308333;32;20124;-64
2022/08/17 09:59:31;;;;;;;16.50;13.00;;;23.10;99.90;;;;;;7321801;32;20111;-65
2022/08/17 10:04:04;;;;;;;14.82;13.32;;;23.10;99.90;;;;;;7319206;32;20175;-64
2022/08/17 10:08:30;;;;;;;16.58;13.27;;;23.10;99.90;;;;;;7322499;32;20202;-65
2022/08/17 10:12:42;;;;;;;17.65;12.35;;;23.10;99.90;;;;;;7303013;32;20592;-65
2022/08/17 10:16:55;;;;;;;17.15;15.35;;;23.10;99.90;;;;;;7317266;32;20220;-66
2022/08/17 10:30:02;;;;;;;16.25;12.90;;;23.00;99.90;;;;;;7318679;32;20289;-65
2022/08/17 10:34:26;;;;;;;15.73;13.25;;;23.00;99.90;;;;;;7320179;32;20213;-65
2022/08/17 10:38:35;;;;;;;16.23;13.23;;;22.90;99.90;;;;;;7321347;32;20120;-65
2022/08/17 10:42:53;;;;;;;18.40;14.07;;;22.80;99.90;;;;;;7298579;32;20134;-64
2022/08/17 10:46:55;;;;;;;17.33;14.50;;;22.80;99.90;;;;;;7314195;32;20116;-66
2022/08/17 10:51:08;;;;;;;24.23;14.77;;;22.70;99.90;;;;;;7310195;32;20409;-65
2022/08/17 10:55:17;;;;;;;17.37;13.52;;;22.60;99.90;;;;;;7312082;32;20545;-64
2022/08/17 10:59:33;;;;;;;17.70;14.57;;;22.60;99.90;;;;;;7304710;32;20119;-65
2022/08/17 11:03:35;;;;;;;20.45;15.88;;;22.40;99.90;;;;;;7316160;32;20350;-64
2022/08/17 11:07:57;;;;;;;19.30;14.25;;;22.50;99.90;;;;;;7317782;32;20304;-64
2022/08/17 11:12:18;;;;;;;20.95;17.25;;;22.50;99.90;;;;;;7306491;32;20237;-63
2022/08/17 11:16:46;;;;;;;22.77;17.75;;;22.40;99.90;;;;;;7310941;32;20169;-65
2022/08/17 11:21:08;;;;;;;20.17;16.48;;;22.40;99.90;;;;;;7312445;32;20232;-65
2022/08/17 11:25:19;;;;;;;24.55;18.77;;;22.40;99.90;;;;;;7312769;32;20182;-64
2022/08/17 11:29:32;;;;;;;21.85;19.50;;;22.40;99.90;;;;;;7308040;32;20195;-65
2022/08/17 11:33:43;;;;;;;22.58;19.30;;;22.50;99.90;;;;;;7314360;32;20223;-64
2022/08/17 11:38:11;;;;;;;20.55;18.55;;;22.80;99.90;;;;;;7301813;32;20611;-64
2022/08/17 11:42:17;;;;;;;26.12;20.17;;;23.20;99.90;;;;;;7310332;32;20230;-64
2022/08/17 11:51:33;;;;;;;24.45;21.92;;;24.20;99.90;;;;;;7310204;32;20091;-65
2022/08/17 11:55:38;;;;;;;25.58;22.90;;;24.60;99.90;;;;;;7315468;32;20107;-65
2022/08/17 11:59:45;;;;;;;24.35;21.85;;;24.90;99.90;;;;;;7305523;32;20131;-65
2022/08/17 12:03:52;;;;;;;22.60;19.92;;;25.10;99.90;;;;;;7306671;32;20232;-65
2022/08/17 12:08:18;;;;;;;26.00;23.27;;;25.30;99.90;;;;;;7313441;32;20206;-65
2022/08/17 12:12:31;;;;;;;27.92;25.17;;;25.30;99.90;;;;;;7294837;32;20340;-65
2022/08/17 12:16:33;;;;;;;26.33;23.50;;;25.20;99.90;;;;;;7312243;32;20507;-65
2022/08/17 12:20:45;;;;;;;25.50;22.95;;;25.40;99.90;;;;;;7311453;32;20139;-65
2022/08/17 12:24:58;;;;;;;25.15;22.55;;;25.30;99.90;;;;;;7313557;32;20688;-65
2022/08/17 12:29:13;;;;;;;26.35;23.67;;;25.10;99.90;;;;;;7313988;32;20107;-66
2022/08/17 12:33:48;;;;;;;29.63;25.07;;;25.00;99.90;;;;;;7313809;32;20645;-64
2022/08/17 12:37:50;;;;;;;30.37;26.60;;;25.00;99.90;;;;;;7311868;32;20103;-65
2022/08/17 12:41:56;;;;;;;25.98;23.42;;;24.90;99.90;;;;;;7316602;32;20156;-65
2022/08/17 12:46:18;;;;;;;31.77;27.80;;;25.10;99.90;;;;;;7315258;32;20191;-65
2022/08/17 12:50:19;;;;;;;33.55;28.10;;;25.00;99.90;;;;;;7300725;32;20187;-65
2022/08/17 12:54:52;;;;;;;30.37;27.25;;;25.00;99.90;;;;;;7312807;32;20108;-65
2022/08/17 12:58:55;;;;;;;33.40;29.85;;;24.80;99.90;;;;;;7309086;32;20667;-65
2022/08/17 13:03:14;;;;;;;32.88;29.50;;;24.80;99.90;;;;;;7295741;32;20195;-65
2022/08/17 13:07:32;;;;;;;34.95;29.70;;;24.80;99.90;;;;;;7313332;32;20196;-65
2022/08/17 13:11:34;;;;;;;34.22;30.80;;;24.70;99.90;;;;;;7311335;32;20747;-72
2022/08/17 13:15:40;;;;;;;33.15;29.87;;;24.50;99.90;;;;;;7313786;32;20132;-62
2022/08/17 13:19:48;;;;;;;33.08;29.67;;;24.70;99.90;;;;;;7307089;32;21020;-65
2022/08/17 13:24:16;;;;;;;35.78;31.12;;;24.60;99.90;;;;;;7310017;32;20443;-63
2022/08/17 13:28:26;;;;;;;34.70;31.00;;;24.40;99.90;;;;;;7312334;32;20182;-65
2022/08/17 13:32:46;;;;;;;31.25;28.08;;;24.90;99.90;;;;;;7295072;32;20187;-58
2022/08/17 13:36:51;;;;;;;32.88;29.48;;;25.40;99.90;;;;;;7309002;32;20476;-61
2022/08/17 13:40:53;;;;;;;36.53;30.37;;;25.70;99.90;;;;;;7302601;32;20550;-64
2022/08/17 13:44:55;;;;;;;31.45;28.23;;;25.80;99.90;;;;;;7309429;32;20126;-60
2022/08/17 13:49:03;;;;;;;31.83;28.35;;;25.60;99.90;;;;;;7309220;32;20178;-62
2022/08/17 13:53:36;;;;;;;31.05;27.73;;;25.20;99.90;;;;;;7312481;32;20554;-62
2022/08/17 13:57:45;;;;;;;38.72;34.83;;;24.90;99.90;;;;;;7302682;32;20265;-62
2022/08/17 14:01:47;;;;;;;38.33;34.50;;;24.70;99.90;;;;;;7314037;32;20130;-62
2022/08/17 14:05:54;;;;;;;43.15;38.65;;;24.40;99.90;;;;;;7312784;32;20384;-62
2022/08/17 14:10:00;;;;;;;43.40;39.05;;;24.30;99.90;;;;;;7314038;32;20159;-63
2022/08/17 14:14:02;;;;;;;38.25;34.70;;;24.40;99.90;;;;;;7313185;32;20132;-62
2022/08/17 14:18:04;;;;;;;40.00;36.00;;;24.60;99.90;;;;;;7308368;32;20121;-60
2022/08/17 14:22:13;;;;;;;44.13;37.85;;;24.70;99.90;;;;;;7313665;32;20099;-62
2022/08/17 14:26:15;;;;;;;41.17;37.08;;;24.70;99.90;;;;;;7289351;32;20241;-66
2022/08/17 14:30:18;;;;;;;39.08;35.20;;;25.00;99.90;;;;;;7304536;32;20408;-66
2022/08/17 14:34:28;;;;;;;37.08;33.47;;;25.00;99.90;;;;;;7315403;32;20179;-66
2022/08/17 14:38:29;;;;;;;36.92;33.10;;;24.80;99.90;;;;;;7309886;32;20108;-68
2022/08/17 14:42:33;;;;;;;36.85;32.95;;;24.60;99.90;;;;;;7297616;32;20116;-66
2022/08/17 14:46:35;;;;;;;38.10;34.40;;;24.40;99.90;;;;;;7306893;32;20207;-67
2022/08/17 14:50:41;;;;;;;36.53;32.83;;;24.50;99.90;;;;;;7306343;32;20709;-67
2022/08/17 14:54:43;;;;;;;32.30;29.23;;;24.80;99.90;;;;;;7311972;32;20180;-66
2022/08/17 14:58:46;;;;;;;31.23;28.23;;;25.10;99.90;;;;;;7303609;32;20850;-67
2022/08/17 15:02:58;;;;;;;25.88;23.20;;;25.20;99.90;;;;;;7309544;32;20349;-68
2022/08/17 15:07:00;;;;;;;27.92;25.33;;;25.20;99.90;;;;;;7312610;32;20126;-69
2022/08/17 15:11:03;;;;;;;28.73;26.08;;;25.00;99.90;;;;;;7307933;32;20108;-67
2022/08/17 15:15:06;;;;;;;33.72;30.40;;;25.10;99.90;;;;;;7310843;32;20574;-67
2022/08/17 15:19:08;;;;;;;30.48;27.20;;;25.20;99.90;;;;;;7306353;32;20203;-68
2022/08/17 15:23:14;;;;;;;33.50;30.40;;;25.10;99.90;;;;;;7308480;32;20170;-67
2022/08/17 15:27:16;;;;;;;31.80;28.90;;;24.90;99.90;;;;;;7309592;32;20535;-67
2022/08/17 15:31:32;;;;;;;36.13;32.53;;;24.80;99.90;;;;;;7310584;32;20096;-68
2022/08/17 15:35:34;;;;;;;37.25;33.70;;;25.00;99.90;;;;;;7311448;32;20096;-66
2022/08/17 15:39:36;;;;;;;33.65;30.15;;;25.00;99.90;;;;;;7309821;32;20185;-67
2022/08/17 15:43:38;;;;;;;32.45;29.48;;;25.00;99.90;;;;;;7315384;32;20211;-67
2022/08/17 15:47:41;;;;;;;28.58;25.95;;;25.00;99.90;;;;;;7315299;32;20120;-68
2022/08/17 15:51:43;;;;;;;33.42;30.42;;;24.70;99.90;;;;;;7319605;32;20172;-67
2022/08/17 15:55:44;;;;;;;37.03;33.53;;;24.60;99.90;;;;;;7312176;32;20115;-69
2022/08/17 15:59:46;;;;;;;34.17;30.75;;;24.60;99.90;;;;;;7313856;32;20157;-67
2022/08/17 16:04:00;;;;;;;40.22;36.30;;;24.70;99.90;;;;;;7314203;32;20096;-69
2022/08/17 16:08:09;;;;;;;36.85;33.35;;;24.80;99.90;;;;;;7313276;32;20278;-68
2022/08/17 16:12:17;;;;;;;37.70;34.15;;;24.70;99.90;;;;;;7311979;32;20104;-67
2022/08/17 16:16:19;;;;;;;36.97;33.40;;;24.50;99.90;;;;;;7311424;32;20221;-68
2022/08/17 16:20:21;;;;;;;34.45;31.10;;;24.50;99.90;;;;;;7313214;32;20280;-66
2022/08/17 16:24:22;;;;;;;33.75;30.45;;;24.50;99.90;;;;;;7315686;32;20625;-69
2022/08/17 16:28:24;;;;;;;34.92;31.37;;;24.40;99.90;;;;;;7313354;32;20504;-69
2022/08/17 16:32:37;;;;;;;32.38;29.05;;;24.30;99.90;;;;;;7303836;32;20167;-66
2022/08/17 16:36:40;;;;;;;33.72;30.25;;;24.30;99.90;;;;;;7313392;32;20270;-66
2022/08/17 16:40:55;;;;;;;33.95;30.42;;;24.30;99.90;;;;;;7311352;32;20491;-66
2022/08/17 16:45:02;;;;;;;31.17;28.20;;;24.20;99.90;;;;;;7313460;32;20172;-68
2022/08/17 16:49:06;;;;;;;33.28;29.92;;;24.10;99.90;;;;;;7314679;32;20119;-66
2022/08/17 16:53:17;;;;;;;28.90;26.10;;;24.10;99.90;;;;;;7314273;32;20211;-66
2022/08/17 16:57:20;;;;;;;24.77;22.58;;;23.90;99.90;;;;;;7316687;32;20674;-66
2022/08/17 17:01:24;;;;;;;22.70;20.58;;;23.90;99.90;;;;;;7312378;32;20119;-67
2022/08/17 17:05:44;;;;;;;20.12;17.17;;;23.80;99.90;;;;;;7304952;32;20466;-67
2022/08/17 17:09:54;;;;;;;19.98;18.05;;;23.60;99.90;;;;;;7315984;32;20206;-67
2022/08/17 17:14:00;;;;;;;19.90;17.35;;;23.30;99.90;;;;;;7309412;32;20104;-67
2022/08/17 17:18:04;;;;;;;17.52;15.80;;;23.10;99.90;;;;;;7319219;32;20208;-67
2022/08/17 17:22:28;;;;;;;16.65;15.18;;;23.10;99.90;;;;;;7310005;32;20274;-65
2022/08/17 17:26:47;;;;;;;16.85;15.25;;;23.10;99.90;;;;;;7317203;32;20123;-65
2022/08/17 17:31:00;;;;;;;19.58;17.58;;;23.00;99.90;;;;;;7315375;32;20280;-65
2022/08/17 17:35:08;;;;;;;22.15;19.75;;;23.00;99.90;;;;;;7312796;32;20679;-66
2022/08/17 17:39:41;;;;;;;24.02;21.58;;;22.90;99.90;;;;;;7312023;32;20160;-66
2022/08/17 17:43:48;;;;;;;22.95;20.85;;;23.00;99.90;;;;;;7309386;32;20191;-67
2022/08/17 17:47:51;;;;;;;23.87;21.48;;;22.80;99.90;;;;;;7311085;32;20205;-67
2022/08/17 17:52:24;;;;;;;24.17;21.92;;;22.60;99.90;;;;;;7306353;32;20096;-66
2022/08/17 17:56:33;;;;;;;25.00;22.70;;;22.50;99.90;;;;;;7317245;32;20537;-66
2022/08/17 18:00:58;;;;;;;26.87;24.15;;;22.50;99.90;;;;;;7313165;32;20100;-66
2022/08/17 18:05:11;;;;;;;26.90;24.30;;;22.50;99.90;;;;;;7311150;32;20199;-65
2022/08/17 18:09:12;;;;;;;27.15;24.30;;;22.40;99.90;;;;;;7315113;32;20165;-64
2022/08/17 18:13:30;;;;;;;26.65;24.10;;;22.20;99.90;;;;;;7313795;32;20170;-66
2022/08/17 18:17:34;;;;;;;23.70;21.35;;;22.20;99.90;;;;;;7313855;32;20356;-60
2022/08/17 18:21:43;;;;;;;25.60;23.10;;;22.00;99.90;;;;;;7306529;32;20223;-61
2022/08/17 18:25:48;;;;;;;25.98;23.52;;;22.00;99.90;;;;;;7312063;32;20207;-61
2022/08/17 18:29:54;;;;;;;23.23;20.92;;;21.90;99.90;;;;;;7313588;32;20196;-62
2022/08/17 18:34:23;;;;;;;23.33;21.05;;;21.80;99.90;;;;;;7316442;32;20610;-66
2022/08/17 18:38:45;;;;;;;24.37;21.23;;;21.60;99.90;;;;;;7307014;32;20513;-66
2022/08/17 18:42:59;;;;;;;22.62;20.33;;;21.50;99.90;;;;;;7316215;32;20152;-65
2022/08/17 18:47:12;;;;;;;22.85;20.58;;;21.20;99.90;;;;;;7317009;32;20166;-67
2022/08/17 18:51:20;;;;;;;23.00;20.88;;;21.00;99.90;;;;;;7319201;32;20600;-66
2022/08/17 18:55:42;;;;;;;;;;;20.90;99.90;;;;;;7314439;32;20108;-66
2022/08/17 18:59:47;;;;;;;21.77;19.62;;;20.70;99.90;;;;;;7311621;32;20286;-69
2022/08/17 19:03:49;;;;;;;21.85;19.80;;;20.60;99.90;;;;;;7310417;32;20126;-69
2022/08/17 19:07:50;;;;;;;23.05;20.95;;;20.40;99.90;;;;;;7311726;32;21006;-68
2022/08/17 19:11:52;;;;;;;24.98;22.45;;;20.40;99.90;;;;;;7313737;32;20104;-65
2022/08/17 19:16:16;;;;;;;24.48;21.85;;;20.20;99.90;;;;;;7312108;32;20202;-66
2022/08/17 19:20:25;;;;;;;24.55;21.95;;;20.10;99.90;;;;;;7308858;32;20213;-64
2022/08/17 19:24:33;;;;;;;25.58;22.95;;;20.00;99.90;;;;;;7314027;32;20230;-66
2022/08/17 19:28:47;;;;;;;25.12;22.90;;;19.90;99.90;;;;;;7309775;32;20146;-68
2022/08/17 19:32:51;;;;;;;24.48;21.98;;;19.80;99.90;;;;;;7313370;32;20225;-69
2022/08/17 19:37:03;;;;;;;23.52;21.20;;;19.70;99.90;;;;;;7311174;32;20112;-66
2022/08/17 19:41:28;;;;;;;24.70;22.02;;;19.70;99.90;;;;;;7313189;32;20107;-66
2022/08/17 19:46:04;;;;;;;26.75;24.15;;;19.70;99.90;;;;;;7318483;32;20210;-66
2022/08/17 19:50:17;;;;;;;26.17;23.67;;;19.60;99.90;;;;;;7319712;32;20104;-68
2022/08/17 19:54:59;;;;;;;25.10;22.58;;;19.50;99.90;;;;;;7321006;32;20233;-64
2022/08/17 19:59:13;;;;;;;26.98;24.15;;;19.40;99.90;;;;;;7305326;32;20201;-65
2022/08/17 20:04:02;;;;;;;26.58;23.23;;;19.30;99.90;;;;;;7321230;32;20171;-65
2022/08/17 20:08:06;;;;;;;24.37;21.98;;;19.20;99.90;;;;;;7320910;32;20203;-66
2022/08/17 20:12:12;;;;;;;25.52;23.12;;;19.10;99.90;;;;;;7311561;32;20180;-65
2022/08/17 20:16:16;;;;;;;25.67;23.10;;;19.10;99.90;;;;;;7316302;32;20163;-65
2022/08/17 20:21:02;;;;;;;26.10;23.23;;;19.00;99.90;;;;;;7318606;32;20610;-65
2022/08/17 20:25:11;;;;;;;26.85;23.62;;;18.90;99.90;;;;;;7302547;32;20173;-66
2022/08/17 20:29:13;;;;;;;25.52;23.02;;;18.70;99.90;;;;;;7315349;32;20206;-64
2022/08/17 20:33:35;;;;;;;26.05;23.67;;;18.60;99.90;;;;;;7322396;32;20254;-67
2022/08/17 20:37:43;;;;;;;34.55;30.83;;;18.50;99.90;;;;;;7299707;32;20178;-66
2022/08/17 20:42:05;;;;;;;26.17;23.38;;;18.40;99.90;;;;;;7319724;32;20171;-67
2022/08/17 20:46:10;;;;;;;27.15;24.33;;;18.30;99.90;;;;;;7320849;32;20306;-66
2022/08/17 20:50:25;;;;;;;26.25;23.38;;;18.30;99.90;;;;;;7319496;32;20126;-67
2022/08/17 20:54:45;;;;;;;27.62;24.77;;;18.20;99.90;;;;;;7318600;32;20116;-67
2022/08/17 20:58:47;;;;;;;27.17;24.15;;;18.10;99.90;;;;;;7313862;32;20606;-66
2022/08/17 21:03:10;;;;;;;27.45;24.05;;;18.00;99.90;;;;;;7315397;32;20226;-68
2022/08/17 21:07:35;;;;;;;28.30;25.42;;;17.90;99.90;;;;;;7310527;32;20111;-69
2022/08/17 21:11:57;;;;;;;26.70;24.02;;;17.80;99.90;;;;;;7308152;32;20225;-67
2022/08/17 21:16:29;;;;;;;26.87;24.23;;;17.80;99.90;;;;;;7320921;32;20125;-65
2022/08/17 21:20:57;;;;;;;27.13;24.58;;;17.70;99.90;;;;;;7316295;32;20178;-67
2022/08/17 21:25:31;;;;;;;28.30;24.30;;;17.70;99.90;;;;;;7314654;32;20162;-68
2022/08/17 21:29:33;;;;;;;29.00;26.15;;;17.60;99.90;;;;;;7314076;32;20504;-66
2022/08/17 21:34:19;;;;;;;28.60;25.88;;;17.60;99.90;;;;;;7313774;32;20134;-65
2022/08/17 21:38:32;;;;;;;27.98;25.05;;;17.40;99.90;;;;;;7297865;32;20167;-64
2022/08/17 21:42:37;;;;;;;29.20;26.15;;;17.40;99.90;;;;;;7313140;32;20188;-64
2022/08/17 21:46:42;;;;;;;28.92;26.23;;;17.20;99.90;;;;;;7314068;32;20213;-65